sensor_id;sensor_type;location;lat;lon;timestamp;pressure;altitude;pressure_sealevel;temperature;humidity
7584;BME280;3833;41.764;26.204;2023-02-12T00:01:10;99905.47;;;-4.71;100.00
7584;BME280;3833;41.764;26.204;2023-02-12T00:03:37;99861.69;;;-5.09;100.00
7584;BME280;3833;41.764;26.204;2023-02-12T00:06:05;99884.44;;;-5.20;100.00
7584;BME280;3833;41.764;26.204;2023-02-12T00:08:32;99912.72;;;-4.98;100.00
7584;BME280;3833;41.764;26.204;2023-02-12T00:11:06;99914.28;;;-5.09;100.00
7584;BME280;3833;41.764;26.204;2023-02-12T00:13:33;99920.16;;;-5.13;100.00
7584;BME280;3833;41.764;26.204;2023-02-12T00:16:03;99920.25;;;-5.07;100.00
7584;BME280;3833;41.764;26.204;2023-02-12T00:18:30;99914.41;;;-5.00;100.00
7584;BME280;3833;41.764;26.204;2023-02-12T00:20:58;99906.78;;;-4.99;100.00
7584;BME280;3833;41.764;26.204;2023-02-12T00:23:25;99801.63;;;-5.63;100.00
7584;BME280;3833;41.764;26.204;2023-02-12T00:25:52;99891.19;;;-5.24;100.00
7584;BME280;3833;41.764;26.204;2023-02-12T00:28:20;99908.47;;;-5.02;100.00
7584;BME280;3833;41.764;26.204;2023-02-12T00:30:47;99872.84;;;-4.99;100.00
7584;BME280;3833;41.764;26.204;2023-02-12T00:33:14;99892.44;;;-4.94;100.00
7584;BME280;3833;41.764;26.204;2023-02-12T00:35:41;99900.88;;;-4.98;100.00
7584;BME280;3833;41.764;26.204;2023-02-12T00:38:08;99899.03;;;-5.08;100.00
7584;BME280;3833;41.764;26.204;2023-02-12T00:40:35;99898.44;;;-4.90;100.00
7584;BME280;3833;41.764;26.204;2023-02-12T00:43:01;99891.63;;;-4.91;100.00
7584;BME280;3833;41.764;26.204;2023-02-12T00:45:30;99780.25;;;-5.74;100.00
7584;BME280;3833;41.764;26.204;2023-02-12T00:47:57;99894.84;;;-5.04;100.00
7584;BME280;3833;41.764;26.204;2023-02-12T00:50:23;99896.91;;;-4.79;100.00
7584;BME280;3833;41.764;26.204;2023-02-12T00:52:50;99895.94;;;-4.87;100.00
7584;BME280;3833;41.764;26.204;2023-02-12T00:55:17;99882.31;;;-4.91;100.00
7584;BME280;3833;41.764;26.204;2023-02-12T00:57:44;99881.63;;;-4.78;100.00
7584;BME280;3833;41.764;26.204;2023-02-12T01:00:12;99890.88;;;-4.84;100.00
7584;BME280;3833;41.764;26.204;2023-02-12T01:02:40;99893.59;;;-4.69;100.00
7584;BME280;3833;41.764;26.204;2023-02-12T01:05:07;99887.59;;;-4.74;100.00
7584;BME280;3833;41.764;26.204;2023-02-12T01:07:35;99875.03;;;-4.61;100.00
7584;BME280;3833;41.764;26.204;2023-02-12T01:10:04;99884.44;;;-4.57;100.00
7584;BME280;3833;41.764;26.204;2023-02-12T01:12:31;99855.41;;;-4.71;100.00
7584;BME280;3833;41.764;26.204;2023-02-12T01:14:58;99882.00;;;-4.46;100.00
7584;BME280;3833;41.764;26.204;2023-02-12T01:17:25;99880.34;;;-4.44;100.00
7584;BME280;3833;41.764;26.204;2023-02-12T01:19:57;99872.91;;;-4.22;100.00
7584;BME280;3833;41.764;26.204;2023-02-12T01:22:24;99844.69;;;-4.44;100.00
7584;BME280;3833;41.764;26.204;2023-02-12T01:24:51;99772.09;;;-4.84;100.00
7584;BME280;3833;41.764;26.204;2023-02-12T01:27:18;99841.28;;;-4.43;100.00
7584;BME280;3833;41.764;26.204;2023-02-12T01:29:44;99843.00;;;-4.42;100.00
7584;BME280;3833;41.764;26.204;2023-02-12T01:32:12;99859.31;;;-4.24;100.00
7584;BME280;3833;41.764;26.204;2023-02-12T01:34:38;99845.81;;;-4.17;100.00
7584;BME280;3833;41.764;26.204;2023-02-12T01:37:07;99809.28;;;-4.14;100.00
7584;BME280;3833;41.764;26.204;2023-02-12T01:39:34;99847.75;;;-3.92;100.00
7584;BME280;3833;41.764;26.204;2023-02-12T01:42:01;99839.31;;;-3.82;100.00
7584;BME280;3833;41.764;26.204;2023-02-12T01:44:30;99846.22;;;-3.69;100.00
7584;BME280;3833;41.764;26.204;2023-02-12T01:47:00;99847.94;;;-3.67;100.00
7584;BME280;3833;41.764;26.204;2023-02-12T01:49:38;99836.16;;;-3.51;100.00
7584;BME280;3833;41.764;26.204;2023-02-12T01:52:12;99845.63;;;-3.37;100.00
7584;BME280;3833;41.764;26.204;2023-02-12T01:54:40;99854.13;;;-3.38;100.00
7584;BME280;3833;41.764;26.204;2023-02-12T01:57:09;99821.75;;;-3.45;100.00
7584;BME280;3833;41.764;26.204;2023-02-12T01:59:38;99838.91;;;-3.20;100.00
7584;BME280;3833;41.764;26.204;2023-02-12T02:02:05;99787.75;;;-3.44;100.00
7584;BME280;3833;41.764;26.204;2023-02-12T02:04:37;99762.09;;;-3.63;100.00
7584;BME280;3833;41.764;26.204;2023-02-12T02:07:08;99787.59;;;-3.68;100.00
7584;BME280;3833;41.764;26.204;2023-02-12T02:09:37;99827.59;;;-3.59;100.00
7584;BME280;3833;41.764;26.204;2023-02-12T02:12:05;99839.44;;;-3.64;100.00
7584;BME280;3833;41.764;26.204;2023-02-12T02:14:52;99842.88;;;-3.59;100.00
7584;BME280;3833;41.764;26.204;2023-02-12T02:17:43;99844.63;;;-3.54;100.00
7584;BME280;3833;41.764;26.204;2023-02-12T02:20:41;99854.78;;;-3.61;100.00
7584;BME280;3833;41.764;26.204;2023-02-12T02:23:32;99816.25;;;-3.96;100.00
7584;BME280;3833;41.764;26.204;2023-02-12T02:29:18;99866.44;;;-3.90;100.00
7584;BME280;3833;41.764;26.204;2023-02-12T02:31:53;99877.44;;;-3.97;100.00
7584;BME280;3833;41.764;26.204;2023-02-12T02:34:28;99877.44;;;-3.97;100.00
7584;BME280;3833;41.764;26.204;2023-02-12T02:37:07;99887.66;;;-3.93;100.00
7584;BME280;3833;41.764;26.204;2023-02-12T02:39:42;99883.38;;;-3.95;100.00
7584;BME280;3833;41.764;26.204;2023-02-12T02:42:16;99867.13;;;-4.08;100.00
7584;BME280;3833;41.764;26.204;2023-02-12T02:44:51;99878.25;;;-3.98;100.00
7584;BME280;3833;41.764;26.204;2023-02-12T02:47:25;99880.81;;;-4.00;100.00
7584;BME280;3833;41.764;26.204;2023-02-12T02:49:56;99796.19;;;-4.55;100.00
7584;BME280;3833;41.764;26.204;2023-02-12T02:52:30;99865.34;;;-4.14;100.00
7584;BME280;3833;41.764;26.204;2023-02-12T02:55:02;99881.53;;;-4.11;100.00
7584;BME280;3833;41.764;26.204;2023-02-12T02:57:35;99863.50;;;-4.30;100.00
7584;BME280;3833;41.764;26.204;2023-02-12T03:00:08;99885.72;;;-4.14;100.00
7584;BME280;3833;41.764;26.204;2023-02-12T03:02:44;99877.03;;;-4.34;100.00
7584;BME280;3833;41.764;26.204;2023-02-12T03:05:17;99877.06;;;-4.31;100.00
7584;BME280;3833;41.764;26.204;2023-02-12T03:07:47;99886.38;;;-4.33;100.00
7584;BME280;3833;41.764;26.204;2023-02-12T03:10:18;99866.25;;;-4.11;100.00
7584;BME280;3833;41.764;26.204;2023-02-12T03:12:51;99851.66;;;-4.25;100.00
7584;BME280;3833;41.764;26.204;2023-02-12T03:15:24;99884.03;;;-4.15;100.00
7584;BME280;3833;41.764;26.204;2023-02-12T03:17:55;99876.78;;;-3.74;100.00
7584;BME280;3833;41.764;26.204;2023-02-12T03:20:27;99879.28;;;-3.80;100.00
7584;BME280;3833;41.764;26.204;2023-02-12T03:22:57;99854.56;;;-3.87;100.00
7584;BME280;3833;41.764;26.204;2023-02-12T03:25:32;99765.78;;;-4.38;100.00
7584;BME280;3833;41.764;26.204;2023-02-12T03:28:03;99857.16;;;-3.84;100.00
7584;BME280;3833;41.764;26.204;2023-02-12T03:30:39;99859.59;;;-3.96;100.00
7584;BME280;3833;41.764;26.204;2023-02-12T03:33:17;99860.38;;;-4.03;100.00
7584;BME280;3833;41.764;26.204;2023-02-12T03:35:53;99854.41;;;-4.03;100.00
7584;BME280;3833;41.764;26.204;2023-02-12T03:38:29;99855.31;;;-3.97;100.00
7584;BME280;3833;41.764;26.204;2023-02-12T03:41:01;99843.38;;;-4.04;100.00
7584;BME280;3833;41.764;26.204;2023-02-12T03:43:33;99742.69;;;-4.59;100.00
7584;BME280;3833;41.764;26.204;2023-02-12T03:46:09;99850.16;;;-4.06;100.00
7584;BME280;3833;41.764;26.204;2023-02-12T03:48:45;99844.38;;;-3.87;100.00
7584;BME280;3833;41.764;26.204;2023-02-12T03:51:18;99842.81;;;-3.70;100.00
7584;BME280;3833;41.764;26.204;2023-02-12T03:53:46;99835.28;;;-3.53;100.00
7584;BME280;3833;41.764;26.204;2023-02-12T03:56:18;99734.75;;;-3.90;100.00
7584;BME280;3833;41.764;26.204;2023-02-12T03:58:45;99831.28;;;-3.17;100.00
7584;BME280;3833;41.764;26.204;2023-02-12T04:01:12;99830.44;;;-3.13;100.00
7584;BME280;3833;41.764;26.204;2023-02-12T04:03:42;99734.16;;;-3.44;100.00
7584;BME280;3833;41.764;26.204;2023-02-12T04:06:19;99825.56;;;-2.62;100.00
7584;BME280;3833;41.764;26.204;2023-02-12T04:08:47;99824.72;;;-2.57;100.00
7584;BME280;3833;41.764;26.204;2023-02-12T04:11:21;99723.28;;;-3.04;100.00
7584;BME280;3833;41.764;26.204;2023-02-12T04:14:00;99816.25;;;-2.33;100.00
7584;BME280;3833;41.764;26.204;2023-02-12T04:16:35;99813.72;;;-2.27;100.00
7584;BME280;3833;41.764;26.204;2023-02-12T04:19:06;99804.31;;;-2.36;100.00
7584;BME280;3833;41.764;26.204;2023-02-12T04:21:43;99816.28;;;-1.99;100.00
7584;BME280;3833;41.764;26.204;2023-02-12T04:24:17;99816.31;;;-1.86;100.00
7584;BME280;3833;41.764;26.204;2023-02-12T04:26:49;99820.56;;;-1.82;100.00
7584;BME280;3833;41.764;26.204;2023-02-12T04:29:23;99818.88;;;-1.83;100.00
7584;BME280;3833;41.764;26.204;2023-02-12T04:31:55;99812.88;;;-1.73;100.00
7584;BME280;3833;41.764;26.204;2023-02-12T04:34:31;99815.44;;;-1.67;100.00
7584;BME280;3833;41.764;26.204;2023-02-12T04:37:03;99806.06;;;-1.60;100.00
7584;BME280;3833;41.764;26.204;2023-02-12T04:39:34;99817.13;;;-1.33;100.00
7584;BME280;3833;41.764;26.204;2023-02-12T04:42:02;99800.03;;;-1.28;100.00
7584;BME280;3833;41.764;26.204;2023-02-12T04:44:32;99830.69;;;-1.01;100.00
7584;BME280;3833;41.764;26.204;2023-02-12T04:46:59;99729.34;;;-1.86;98.59
7584;BME280;3833;41.764;26.204;2023-02-12T04:49:28;99842.75;;;-1.54;93.54
7584;BME280;3833;41.764;26.204;2023-02-12T04:51:54;99810.31;;;-1.94;93.91
7584;BME280;3833;41.764;26.204;2023-02-12T04:54:22;99667.13;;;-2.95;95.09
7584;BME280;3833;41.764;26.204;2023-02-12T04:56:49;99841.00;;;-2.14;97.60
7584;BME280;3833;41.764;26.204;2023-02-12T04:59:17;99851.28;;;-1.97;99.54
7584;BME280;3833;41.764;26.204;2023-02-12T05:01:44;99851.22;;;-2.08;100.00
7584;BME280;3833;41.764;26.204;2023-02-12T05:04:12;99832.47;;;-2.15;100.00
7584;BME280;3833;41.764;26.204;2023-02-12T05:06:43;99858.91;;;-1.94;100.00
7584;BME280;3833;41.764;26.204;2023-02-12T05:09:13;99864.88;;;-1.96;100.00
7584;BME280;3833;41.764;26.204;2023-02-12T05:11:41;99861.44;;;-2.23;100.00
7584;BME280;3833;41.764;26.204;2023-02-12T05:14:07;99836.66;;;-2.51;100.00
7584;BME280;3833;41.764;26.204;2023-02-12T05:16:35;99868.22;;;-2.31;100.00
7584;BME280;3833;41.764;26.204;2023-02-12T05:19:02;99842.63;;;-2.49;100.00
7584;BME280;3833;41.764;26.204;2023-02-12T05:21:29;99881.84;;;-2.34;100.00
7584;BME280;3833;41.764;26.204;2023-02-12T05:23:59;99882.66;;;-2.48;100.00
7584;BME280;3833;41.764;26.204;2023-02-12T05:26:26;99890.34;;;-2.42;100.00
7584;BME280;3833;41.764;26.204;2023-02-12T05:28:53;99798.16;;;-3.02;100.00
7584;BME280;3833;41.764;26.204;2023-02-12T05:31:20;99886.91;;;-2.56;100.00
7584;BME280;3833;41.764;26.204;2023-02-12T05:33:47;99891.16;;;-2.54;100.00
7584;BME280;3833;41.764;26.204;2023-02-12T05:36:16;99825.47;;;-2.83;100.00
7584;BME280;3833;41.764;26.204;2023-02-12T05:38:43;99918.56;;;-2.07;100.00
7584;BME280;3833;41.764;26.204;2023-02-12T05:41:14;99924.59;;;-1.87;100.00
7584;BME280;3833;41.764;26.204;2023-02-12T05:43:41;99821.41;;;-2.15;100.00
7584;BME280;3833;41.764;26.204;2023-02-12T05:46:09;99919.53;;;-1.33;100.00
7584;BME280;3833;41.764;26.204;2023-02-12T05:48:37;99917.78;;;-1.04;100.00
7584;BME280;3833;41.764;26.204;2023-02-12T05:51:06;99904.09;;;-0.91;100.00
7584;BME280;3833;41.764;26.204;2023-02-12T05:53:34;99931.31;;;-0.48;100.00
7584;BME280;3833;41.764;26.204;2023-02-12T05:56:09;99933.75;;;-0.15;99.20
7584;BME280;3833;41.764;26.204;2023-02-12T05:58:38;99914.00;;;-0.02;99.66
7584;BME280;3833;41.764;26.204;2023-02-12T06:01:11;99848.16;;;-0.03;100.00
7584;BME280;3833;41.764;26.204;2023-02-12T06:03:38;99946.00;;;0.74;97.54
7584;BME280;3833;41.764;26.204;2023-02-12T06:06:05;99932.03;;;1.05;94.96
7584;BME280;3833;41.764;26.204;2023-02-12T06:08:32;99867.22;;;0.76;91.42
7584;BME280;3833;41.764;26.204;2023-02-12T06:11:00;99940.41;;;1.25;94.15
7584;BME280;3833;41.764;26.204;2023-02-12T06:13:28;99943.91;;;1.19;93.16
7584;BME280;3833;41.764;26.204;2023-02-12T06:15:58;99947.28;;;1.23;92.30
7584;BME280;3833;41.764;26.204;2023-02-12T06:18:25;99948.13;;;1.25;92.62
7584;BME280;3833;41.764;26.204;2023-02-12T06:20:52;99952.25;;;1.38;91.44
7584;BME280;3833;41.764;26.204;2023-02-12T06:23:19;99949.66;;;1.42;91.64
7584;BME280;3833;41.764;26.204;2023-02-12T06:25:46;99947.94;;;1.43;91.10
7584;BME280;3833;41.764;26.204;2023-02-12T06:28:14;99952.94;;;1.56;84.63
7584;BME280;3833;41.764;26.204;2023-02-12T06:30:41;99951.81;;;1.78;75.46
7584;BME280;3833;41.764;26.204;2023-02-12T06:33:09;99939.22;;;2.23;69.43
7584;BME280;3833;41.764;26.204;2023-02-12T06:35:37;99937.94;;;2.50;65.96
7584;BME280;3833;41.764;26.204;2023-02-12T06:38:04;99915.44;;;2.64;63.48
7584;BME280;3833;41.764;26.204;2023-02-12T06:40:31;99950.78;;;3.07;61.99
7584;BME280;3833;41.764;26.204;2023-02-12T06:42:58;99963.34;;;3.25;60.94
7584;BME280;3833;41.764;26.204;2023-02-12T06:45:25;99965.16;;;3.21;61.32
7584;BME280;3833;41.764;26.204;2023-02-12T06:47:52;99957.28;;;3.29;61.60
7584;BME280;3833;41.764;26.204;2023-02-12T06:50:21;99961.38;;;3.39;60.99
7584;BME280;3833;41.764;26.204;2023-02-12T06:52:48;99960.44;;;3.44;58.36
7584;BME280;3833;41.764;26.204;2023-02-12T06:55:14;99867.72;;;2.89;59.91
7584;BME280;3833;41.764;26.204;2023-02-12T06:57:42;99966.28;;;3.54;58.99
7584;BME280;3833;41.764;26.204;2023-02-12T07:00:10;99967.78;;;3.64;58.17
7584;BME280;3833;41.764;26.204;2023-02-12T07:02:37;99951.06;;;3.39;56.83
7584;BME280;3833;41.764;26.204;2023-02-12T07:05:04;99886.34;;;3.04;56.16
7584;BME280;3833;41.764;26.204;2023-02-12T07:07:33;99941.75;;;3.32;56.95
7584;BME280;3833;41.764;26.204;2023-02-12T07:10:00;99973.41;;;3.40;58.41
7584;BME280;3833;41.764;26.204;2023-02-12T07:12:27;99966.84;;;3.21;57.87
7584;BME280;3833;41.764;26.204;2023-02-12T07:14:54;99954.69;;;3.29;57.68
7584;BME280;3833;41.764;26.204;2023-02-12T07:17:21;99971.50;;;3.49;58.19
7584;BME280;3833;41.764;26.204;2023-02-12T07:19:50;99973.44;;;3.37;58.08
7584;BME280;3833;41.764;26.204;2023-02-12T07:22:16;99976.94;;;3.36;56.55
7584;BME280;3833;41.764;26.204;2023-02-12T07:24:45;99972.91;;;3.67;56.69
7584;BME280;3833;41.764;26.204;2023-02-12T07:27:12;99941.97;;;3.64;56.25
7584;BME280;3833;41.764;26.204;2023-02-12T07:29:39;99965.56;;;3.90;56.53
7584;BME280;3833;41.764;26.204;2023-02-12T07:32:06;99987.75;;;4.39;55.12
7584;BME280;3833;41.764;26.204;2023-02-12T07:34:33;99974.31;;;4.23;55.44
7584;BME280;3833;41.764;26.204;2023-02-12T07:36:59;99994.47;;;4.07;55.11
7584;BME280;3833;41.764;26.204;2023-02-12T07:39:26;99989.56;;;4.35;55.43
7584;BME280;3833;41.764;26.204;2023-02-12T07:41:55;99961.50;;;4.19;55.53
7584;BME280;3833;41.764;26.204;2023-02-12T07:44:22;99983.53;;;4.35;53.88
7584;BME280;3833;41.764;26.204;2023-02-12T07:46:49;99958.09;;;4.17;54.94
7584;BME280;3833;41.764;26.204;2023-02-12T07:49:17;99953.59;;;3.86;54.39
7584;BME280;3833;41.764;26.204;2023-02-12T07:51:46;99988.06;;;4.63;55.05
7584;BME280;3833;41.764;26.204;2023-02-12T07:54:13;99985.56;;;4.60;53.67
7584;BME280;3833;41.764;26.204;2023-02-12T07:56:41;99960.44;;;4.67;53.41
7584;BME280;3833;41.764;26.204;2023-02-12T07:59:14;99978.81;;;4.91;53.04
7584;BME280;3833;41.764;26.204;2023-02-12T08:01:42;99976.16;;;4.94;53.99
7584;BME280;3833;41.764;26.204;2023-02-12T08:04:13;99957.88;;;5.00;52.40
7584;BME280;3833;41.764;26.204;2023-02-12T08:06:42;99970.94;;;5.29;52.08
7584;BME280;3833;41.764;26.204;2023-02-12T08:09:11;99974.31;;;5.64;51.43
7584;BME280;3833;41.764;26.204;2023-02-12T08:11:39;99977.06;;;5.60;51.52
7584;BME280;3833;41.764;26.204;2023-02-12T08:14:08;99977.34;;;5.48;52.02
7584;BME280;3833;41.764;26.204;2023-02-12T08:16:38;99977.06;;;5.60;51.78
7584;BME280;3833;41.764;26.204;2023-02-12T08:19:06;99973.00;;;5.16;51.17
7584;BME280;3833;41.764;26.204;2023-02-12T08:21:33;99804.16;;;4.43;51.33
7584;BME280;3833;41.764;26.204;2023-02-12T08:24:00;99980.28;;;5.36;52.01
7584;BME280;3833;41.764;26.204;2023-02-12T08:26:28;99995.50;;;6.40;50.85
7584;BME280;3833;41.764;26.204;2023-02-12T08:28:57;99998.72;;;7.03;49.29
7584;BME280;3833;41.764;26.204;2023-02-12T08:31:28;99978.69;;;6.81;48.85
7584;BME280;3833;41.764;26.204;2023-02-12T08:33:56;100003.50;;;7.91;47.67
7584;BME280;3833;41.764;26.204;2023-02-12T08:36:25;100017.03;;;6.99;47.23
7584;BME280;3833;41.764;26.204;2023-02-12T08:38:52;100019.94;;;6.88;48.43
7584;BME280;3833;41.764;26.204;2023-02-12T08:41:20;99993.34;;;7.35;47.61
7584;BME280;3833;41.764;26.204;2023-02-12T08:43:48;100003.91;;;7.55;47.18
7584;BME280;3833;41.764;26.204;2023-02-12T08:46:17;100023.00;;;7.02;47.42
7584;BME280;3833;41.764;26.204;2023-02-12T08:48:45;100028.94;;;7.04;47.10
7584;BME280;3833;41.764;26.204;2023-02-12T08:51:14;100033.13;;;7.10;47.50
7584;BME280;3833;41.764;26.204;2023-02-12T08:53:43;99936.69;;;6.14;49.79
7584;BME280;3833;41.764;26.204;2023-02-12T08:56:12;99938.53;;;5.80;48.82
7584;BME280;3833;41.764;26.204;2023-02-12T08:58:39;100026.16;;;6.55;49.04
7584;BME280;3833;41.764;26.204;2023-02-12T09:01:09;100049.41;;;6.29;49.41
7584;BME280;3833;41.764;26.204;2023-02-12T09:03:36;100045.63;;;6.70;49.20
7584;BME280;3833;41.764;26.204;2023-02-12T09:06:04;100027.25;;;6.76;47.99
7584;BME280;3833;41.764;26.204;2023-02-12T09:08:33;100057.00;;;6.35;49.56
7584;BME280;3833;41.764;26.204;2023-02-12T09:11:03;100056.03;;;7.50;47.91
7584;BME280;3833;41.764;26.204;2023-02-12T09:13:31;100052.88;;;7.41;48.29
7584;BME280;3833;41.764;26.204;2023-02-12T09:15:59;100024.84;;;7.24;46.78
7584;BME280;3833;41.764;26.204;2023-02-12T09:18:28;100055.78;;;6.77;48.63
7584;BME280;3833;41.764;26.204;2023-02-12T09:21:00;100064.84;;;7.45;48.08
7584;BME280;3833;41.764;26.204;2023-02-12T09:23:27;100059.59;;;6.35;48.94
7584;BME280;3833;41.764;26.204;2023-02-12T09:25:55;100056.81;;;5.81;49.24
7584;BME280;3833;41.764;26.204;2023-02-12T09:28:23;100051.00;;;6.33;49.43
7584;BME280;3833;41.764;26.204;2023-02-12T09:30:50;100054.13;;;7.02;48.55
7584;BME280;3833;41.764;26.204;2023-02-12T09:33:17;100011.16;;;6.37;48.70
7584;BME280;3833;41.764;26.204;2023-02-12T09:35:44;100047.63;;;7.68;46.94
7584;BME280;3833;41.764;26.204;2023-02-12T09:38:11;100047.81;;;7.62;47.83
7584;BME280;3833;41.764;26.204;2023-02-12T09:40:42;100054.91;;;7.31;47.85
7584;BME280;3833;41.764;26.204;2023-02-12T09:43:27;100044.41;;;7.34;46.67
7584;BME280;3833;41.764;26.204;2023-02-12T09:46:01;100044.88;;;8.22;45.93
7584;BME280;3833;41.764;26.204;2023-02-12T09:48:47;100034.66;;;8.16;46.35
7584;BME280;3833;41.764;26.204;2023-02-12T09:51:16;100034.66;;;7.67;45.55
7584;BME280;3833;41.764;26.204;2023-02-12T09:53:45;100030.06;;;7.75;45.76
7584;BME280;3833;41.764;26.204;2023-02-12T09:56:16;100028.94;;;8.76;44.58
7584;BME280;3833;41.764;26.204;2023-02-12T09:58:49;100028.25;;;9.16;43.97
7584;BME280;3833;41.764;26.204;2023-02-12T10:01:18;100026.00;;;8.62;44.45
7584;BME280;3833;41.764;26.204;2023-02-12T10:03:47;100041.38;;;9.13;43.37
7584;BME280;3833;41.764;26.204;2023-02-12T10:06:16;100034.59;;;9.50;43.36
7584;BME280;3833;41.764;26.204;2023-02-12T10:08:58;100023.59;;;9.43;42.54
7584;BME280;3833;41.764;26.204;2023-02-12T10:11:48;100026.88;;;8.84;42.84
7584;BME280;3833;41.764;26.204;2023-02-12T10:14:33;100012.94;;;8.64;43.71
7584;BME280;3833;41.764;26.204;2023-02-12T10:17:12;100025.66;;;8.25;44.39
7584;BME280;3833;41.764;26.204;2023-02-12T10:20:14;100033.34;;;8.28;45.02
7584;BME280;3833;41.764;26.204;2023-02-12T10:22:54;100032.75;;;7.96;45.58
7584;BME280;3833;41.764;26.204;2023-02-12T10:25:29;100031.41;;;8.35;45.16
7584;BME280;3833;41.764;26.204;2023-02-12T10:28:07;100026.06;;;8.14;46.33
7584;BME280;3833;41.764;26.204;2023-02-12T10:30:40;100019.31;;;8.55;44.99
7584;BME280;3833;41.764;26.204;2023-02-12T10:33:13;99986.63;;;7.78;45.41
7584;BME280;3833;41.764;26.204;2023-02-12T10:35:43;100007.91;;;8.36;44.45
7584;BME280;3833;41.764;26.204;2023-02-12T10:38:16;99999.94;;;9.48;44.23
7584;BME280;3833;41.764;26.204;2023-02-12T10:40:45;100004.47;;;9.84;43.86
7584;BME280;3833;41.764;26.204;2023-02-12T10:43:15;100014.97;;;9.63;42.36
7584;BME280;3833;41.764;26.204;2023-02-12T10:45:43;100012.22;;;9.46;42.23
7584;BME280;3833;41.764;26.204;2023-02-12T10:48:13;100002.13;;;10.18;41.40
7584;BME280;3833;41.764;26.204;2023-02-12T10:50:49;100001.78;;;10.99;39.49
7584;BME280;3833;41.764;26.204;2023-02-12T10:53:21;100015.63;;;10.64;39.38
7584;BME280;3833;41.764;26.204;2023-02-12T10:56:03;99982.44;;;10.11;38.98
7584;BME280;3833;41.764;26.204;2023-02-12T10:58:32;100017.44;;;9.86;39.82
7584;BME280;3833;41.764;26.204;2023-02-12T11:01:01;100007.09;;;10.04;39.17
7584;BME280;3833;41.764;26.204;2023-02-12T11:03:30;99940.28;;;9.22;39.93
7584;BME280;3833;41.764;26.204;2023-02-12T11:06:12;100016.03;;;9.37;40.40
7584;BME280;3833;41.764;26.204;2023-02-12T11:08:39;99857.75;;;8.40;41.10
7584;BME280;3833;41.764;26.204;2023-02-12T11:11:09;100017.66;;;9.19;41.44
7584;BME280;3833;41.764;26.204;2023-02-12T11:13:38;100008.63;;;9.68;41.06
7584;BME280;3833;41.764;26.204;2023-02-12T11:16:06;99996.81;;;9.40;41.58
7584;BME280;3833;41.764;26.204;2023-02-12T11:18:34;100020.59;;;9.32;40.21
7584;BME280;3833;41.764;26.204;2023-02-12T11:21:03;100021.41;;;9.33;40.77
7584;BME280;3833;41.764;26.204;2023-02-12T11:23:33;99932.66;;;8.32;41.62
7584;BME280;3833;41.764;26.204;2023-02-12T11:26:03;100011.16;;;9.70;40.81
7584;BME280;3833;41.764;26.204;2023-02-12T11:28:32;100009.34;;;10.12;40.66
7584;BME280;3833;41.764;26.204;2023-02-12T11:31:01;100008.56;;;9.90;40.41
7584;BME280;3833;41.764;26.204;2023-02-12T11:33:32;99920.00;;;8.87;41.26
7584;BME280;3833;41.764;26.204;2023-02-12T11:36:03;100004.78;;;9.77;39.96
7584;BME280;3833;41.764;26.204;2023-02-12T11:38:33;100012.66;;;10.35;40.03
7584;BME280;3833;41.764;26.204;2023-02-12T11:41:08;100018.91;;;9.31;40.43
7584;BME280;3833;41.764;26.204;2023-02-12T11:43:44;100014.84;;;9.66;39.94
7584;BME280;3833;41.764;26.204;2023-02-12T11:46:18;100010.88;;;10.17;39.94
7584;BME280;3833;41.764;26.204;2023-02-12T11:48:49;100007.06;;;9.64;40.02
7584;BME280;3833;41.764;26.204;2023-02-12T11:51:19;99990.44;;;9.27;41.41
7584;BME280;3833;41.764;26.204;2023-02-12T11:53:49;100010.34;;;9.69;40.51
7584;BME280;3833;41.764;26.204;2023-02-12T11:56:17;100020.06;;;9.66;41.89
7584;BME280;3833;41.764;26.204;2023-02-12T11:58:46;100016.78;;;9.81;40.90
7584;BME280;3833;41.764;26.204;2023-02-12T12:01:18;100016.53;;;10.27;41.44
7584;BME280;3833;41.764;26.204;2023-02-12T12:03:54;100013.66;;;9.93;40.21
7584;BME280;3833;41.764;26.204;2023-02-12T12:06:32;99994.69;;;9.28;41.59
7584;BME280;3833;41.764;26.204;2023-02-12T12:09:04;100011.13;;;9.30;42.10
7584;BME280;3833;41.764;26.204;2023-02-12T12:11:40;100016.94;;;9.15;43.99
7584;BME280;3833;41.764;26.204;2023-02-12T12:14:16;99997.81;;;8.73;44.19
7584;BME280;3833;41.764;26.204;2023-02-12T12:16:50;100023.25;;;9.31;45.55
7584;BME280;3833;41.764;26.204;2023-02-12T12:19:43;99977.94;;;8.92;44.57
7584;BME280;3833;41.764;26.204;2023-02-12T12:22:41;100031.59;;;9.39;44.45
7584;BME280;3833;41.764;26.204;2023-02-12T12:25:16;100026.91;;;9.27;44.44
7584;BME280;3833;41.764;26.204;2023-02-12T12:27:54;100019.97;;;9.05;44.55
7584;BME280;3833;41.764;26.204;2023-02-12T12:30:38;100020.22;;;9.20;44.31
7584;BME280;3833;41.764;26.204;2023-02-12T12:33:13;100036.41;;;9.48;43.79
7584;BME280;3833;41.764;26.204;2023-02-12T12:35:49;100041.28;;;9.97;45.08
7584;BME280;3833;41.764;26.204;2023-02-12T12:38:24;100045.03;;;9.50;43.89
7584;BME280;3833;41.764;26.204;2023-02-12T12:41:01;100040.16;;;9.21;43.80
7584;BME280;3833;41.764;26.204;2023-02-12T12:43:38;100029.31;;;9.10;44.18
7584;BME280;3833;41.764;26.204;2023-02-12T12:46:25;100041.59;;;8.85;44.21
7584;BME280;3833;41.764;26.204;2023-02-12T12:49:13;100053.53;;;9.12;45.13
7584;BME280;3833;41.764;26.204;2023-02-12T12:52:04;100047.75;;;8.37;44.38
7584;BME280;3833;41.764;26.204;2023-02-12T12:54:50;100059.72;;;8.42;45.51
7584;BME280;3833;41.764;26.204;2023-02-12T12:57:30;100062.47;;;8.14;44.10
7584;BME280;3833;41.764;26.204;2023-02-12T13:03:35;100053.78;;;8.15;46.16
7584;BME280;3833;41.764;26.204;2023-02-12T13:06:24;100050.75;;;8.26;46.73
7584;BME280;3833;41.764;26.204;2023-02-12T13:09:21;100053.41;;;8.01;46.84
7584;BME280;3833;41.764;26.204;2023-02-12T13:12:07;100086.25;;;8.03;47.52
7584;BME280;3833;41.764;26.204;2023-02-12T13:14:43;100068.50;;;7.90;47.35
7584;BME280;3833;41.764;26.204;2023-02-12T13:17:19;100095.31;;;7.92;47.80
7584;BME280;3833;41.764;26.204;2023-02-12T13:20:05;100094.78;;;7.82;47.70
7584;BME280;3833;41.764;26.204;2023-02-12T13:22:41;100073.50;;;7.71;47.34
7584;BME280;3833;41.764;26.204;2023-02-12T13:25:21;100105.72;;;7.66;48.05
7584;BME280;3833;41.764;26.204;2023-02-12T13:27:53;100106.06;;;7.81;48.56
7584;BME280;3833;41.764;26.204;2023-02-12T13:30:26;100111.72;;;7.94;47.98
7584;BME280;3833;41.764;26.204;2023-02-12T13:33:02;100114.31;;;8.20;47.81
7584;BME280;3833;41.764;26.204;2023-02-12T13:35:34;100118.38;;;8.26;47.79